createdAt,value
2022-12-18T00:00:06.109Z,-0.12
2022-12-18T00:03:01.986Z,-0.10
2022-12-18T00:05:30.577Z,-0.03
2022-12-18T00:07:58.510Z,-0.00
2022-12-18T00:10:26.721Z,-0.00
2022-12-18T00:12:54.718Z,-0.00
2022-12-18T00:15:22.723Z,-0.01
2022-12-18T00:17:51.255Z,-0.03
2022-12-18T00:20:24.773Z,-0.08
2022-12-18T00:22:54.084Z,-0.14
2022-12-18T00:25:22.341Z,-0.25
2022-12-18T00:27:50.287Z,-0.34
2022-12-18T00:30:19.517Z,-0.37
2022-12-18T00:32:47.429Z,-0.38
2022-12-18T00:35:15.307Z,0.34
2022-12-18T00:37:43.766Z,2.13
2022-12-18T00:40:13.588Z,4.11
2022-12-18T00:42:56.676Z,4.95
2022-12-18T00:45:27.445Z,3.63
2022-12-18T00:47:56.736Z,2.38
2022-12-18T00:50:26.174Z,1.50
2022-12-18T00:52:54.115Z,0.87
2022-12-18T00:55:21.928Z,0.36
2022-12-18T00:57:52.957Z,-0.08
2022-12-18T01:00:21.662Z,-0.49
2022-12-18T01:02:49.697Z,-0.57
2022-12-18T01:05:18.209Z,1.03
2022-12-18T01:07:46.272Z,2.74
2022-12-18T01:10:14.712Z,3.98
2022-12-18T01:12:42.723Z,4.35
2022-12-18T01:15:13.996Z,3.14
2022-12-18T01:17:42.560Z,1.95
2022-12-18T01:20:13.190Z,1.14
2022-12-18T01:22:41.436Z,0.55
2022-12-18T01:25:09.860Z,0.09
2022-12-18T01:27:38.037Z,-0.31
2022-12-18T01:30:06.775Z,-0.35
2022-12-18T01:32:34.687Z,1.06
2022-12-18T01:35:04.804Z,2.48
2022-12-18T01:37:32.950Z,3.35
2022-12-18T01:40:01.041Z,3.86
2022-12-18T01:42:29.472Z,3.83
2022-12-18T01:45:06.027Z,2.76
2022-12-18T01:47:50.872Z,1.71
2022-12-18T01:50:23.958Z,0.88
2022-12-18T01:52:59.445Z,0.27
2022-12-18T01:55:32.019Z,-0.22
2022-12-18T01:58:01.701Z,-0.33
2022-12-18T02:00:30.475Z,0.98
2022-12-18T02:02:58.636Z,2.36
2022-12-18T02:05:48.318Z,3.49
2022-12-18T02:08:25.896Z,4.28
2022-12-18T02:11:23.363Z,3.38
2022-12-18T02:14:21.740Z,1.96
2022-12-18T02:16:57.321Z,0.95
2022-12-18T02:19:45.734Z,0.31
2022-12-18T02:22:30.913Z,-0.25
2022-12-18T02:25:17.471Z,-0.30
2022-12-18T02:27:50.303Z,0.94
2022-12-18T02:30:20.215Z,2.09
2022-12-18T02:32:54.624Z,2.92
2022-12-18T02:35:30.519Z,3.50
2022-12-18T02:38:00.213Z,3.47
2022-12-18T02:40:31.504Z,2.33
2022-12-18T02:43:11.686Z,1.32
2022-12-18T02:45:55.916Z,0.53
2022-12-18T02:48:29.853Z,-0.08
2022-12-18T02:51:24.700Z,-0.53
2022-12-18T02:54:03.871Z,-0.41
2022-12-18T02:56:40.040Z,0.69
2022-12-18T02:59:16.698Z,1.29
2022-12-18T03:02:03.082Z,1.49
2022-12-18T03:04:49.876Z,2.73
2022-12-18T03:07:39.115Z,4.74
2022-12-18T03:10:14.758Z,4.70
2022-12-18T03:12:51.411Z,3.24
2022-12-18T03:15:31.872Z,2.05
2022-12-18T03:18:24.400Z,1.14
2022-12-18T03:20:57.095Z,0.45
2022-12-18T03:23:29.360Z,-0.09
2022-12-18T03:26:07.163Z,-0.55
2022-12-18T03:28:43.219Z,-0.44
2022-12-18T03:31:15.329Z,1.98
2022-12-18T03:33:55.471Z,3.76
2022-12-18T03:36:28.064Z,4.03
2022-12-18T03:38:56.153Z,2.76
2022-12-18T03:41:34.813Z,1.62
2022-12-18T03:44:51.132Z,0.59
2022-12-18T03:47:45.515Z,-0.02
2022-12-18T03:50:20.991Z,-0.54
2022-12-18T03:53:38.728Z,-0.93
2022-12-18T03:56:09.724Z,-0.22
2022-12-18T03:58:43.028Z,2.13
2022-12-18T04:01:32.305Z,3.59
2022-12-18T04:04:03.324Z,4.18
2022-12-18T04:06:37.026Z,3.10
2022-12-18T04:09:06.181Z,1.90
2022-12-18T04:11:37.286Z,1.02
2022-12-18T04:14:07.340Z,0.39
2022-12-18T04:16:35.745Z,-0.13
2022-12-18T04:19:06.189Z,-0.56
2022-12-18T04:21:39.534Z,-0.91
2022-12-18T04:24:07.963Z,-0.96
2022-12-18T04:26:36.586Z,0.13
2022-12-18T04:29:31.299Z,1.24
2022-12-18T04:31:59.344Z,1.35
2022-12-18T04:34:27.666Z,1.32
2022-12-18T04:36:56.182Z,1.23
2022-12-18T04:39:25.333Z,1.41
2022-12-18T04:41:55.484Z,1.93
2022-12-18T04:44:23.975Z,2.37
2022-12-18T04:46:51.914Z,2.60
2022-12-18T04:49:20.280Z,2.48
2022-12-18T04:51:48.580Z,1.59
2022-12-18T04:54:17.083Z,0.72
2022-12-18T04:56:44.944Z,0.07
2022-12-18T04:59:13.237Z,-0.44
2022-12-18T05:01:41.420Z,-0.84
2022-12-18T05:04:10.027Z,-1.18
2022-12-18T05:06:38.464Z,-1.26
2022-12-18T05:09:06.540Z,-0.36
2022-12-18T05:11:34.701Z,0.41
2022-12-18T05:14:03.200Z,1.01
2022-12-18T05:16:31.248Z,1.70
2022-12-18T05:18:59.077Z,2.90
2022-12-18T05:21:27.641Z,3.29
2022-12-18T05:23:55.542Z,2.50
2022-12-18T05:26:24.252Z,1.42
2022-12-18T05:28:52.744Z,0.61
2022-12-18T05:31:20.764Z,-0.01
2022-12-18T05:33:48.685Z,-0.51
2022-12-18T05:36:17.448Z,-0.93
2022-12-18T05:38:45.294Z,-1.17
2022-12-18T05:41:13.173Z,-0.35
2022-12-18T05:43:42.632Z,0.67
2022-12-18T05:46:16.254Z,1.27
2022-12-18T05:48:45.862Z,1.60
2022-12-18T05:51:19.251Z,1.64
2022-12-18T05:53:48.081Z,1.70
2022-12-18T05:56:20.275Z,1.84
2022-12-18T05:58:52.052Z,2.33
2022-12-18T06:01:23.116Z,3.40
2022-12-18T06:03:51.508Z,3.40
2022-12-18T06:06:23.863Z,2.21
2022-12-18T06:08:52.391Z,1.18
2022-12-18T06:11:23.829Z,0.48
2022-12-18T06:13:58.138Z,-0.06
2022-12-18T06:16:28.342Z,-0.54
2022-12-18T06:19:01.104Z,-0.95
2022-12-18T06:21:30.846Z,-1.29
2022-12-18T06:24:00.652Z,-1.43
2022-12-18T06:26:28.877Z,-0.26
2022-12-18T06:28:57.378Z,0.43
2022-12-18T06:31:26.734Z,0.75
2022-12-18T06:33:55.025Z,0.78
2022-12-18T06:36:23.362Z,0.49
2022-12-18T06:38:51.250Z,0.31
2022-12-18T06:41:21.408Z,0.11
2022-12-18T06:43:49.989Z,-0.01
2022-12-18T06:46:17.899Z,-0.05
2022-12-18T06:48:50.000Z,0.45
2022-12-18T06:51:19.919Z,2.72
2022-12-18T06:53:47.862Z,4.01
2022-12-18T06:56:15.781Z,4.01
2022-12-18T06:58:43.921Z,2.72
2022-12-18T07:01:13.060Z,1.61
2022-12-18T07:03:43.566Z,0.80
2022-12-18T07:06:17.541Z,0.19
2022-12-18T07:08:46.659Z,-0.31
2022-12-18T07:11:15.804Z,-0.71
2022-12-18T07:13:43.952Z,-1.05
2022-12-18T07:16:20.804Z,-1.23
2022-12-18T07:18:50.531Z,-0.92
2022-12-18T07:21:20.772Z,-0.69
2022-12-18T07:23:49.475Z,-0.73
2022-12-18T07:26:21.407Z,-0.82
2022-12-18T07:28:50.059Z,-0.88
2022-12-18T07:31:22.102Z,-0.93
2022-12-18T07:33:51.608Z,-0.98
2022-12-18T07:36:20.820Z,-1.07
2022-12-18T07:38:50.322Z,-1.09
2022-12-18T07:41:19.767Z,-1.13
2022-12-18T07:43:48.346Z,-1.18
2022-12-18T07:46:17.846Z,-1.25
2022-12-18T07:48:49.340Z,-1.08
2022-12-18T07:51:19.765Z,-0.81
2022-12-18T07:53:51.304Z,-0.47
2022-12-18T07:56:30.099Z,-0.52
2022-12-18T07:59:00.287Z,0.06
2022-12-18T08:01:28.711Z,0.77
2022-12-18T08:03:58.396Z,1.18
2022-12-18T08:06:27.184Z,1.27
2022-12-18T08:08:56.786Z,1.27
2022-12-18T08:11:26.888Z,1.27
2022-12-18T08:13:55.056Z,1.30
2022-12-18T08:16:24.911Z,1.15
2022-12-18T08:18:54.243Z,1.02
2022-12-18T08:21:25.267Z,1.43
2022-12-18T08:23:55.559Z,3.56
2022-12-18T08:26:24.379Z,4.27
2022-12-18T08:28:54.766Z,3.01
2022-12-18T08:31:23.649Z,1.65
2022-12-18T08:33:54.473Z,0.65
2022-12-18T08:36:24.921Z,-0.06
2022-12-18T08:38:53.919Z,-0.61
2022-12-18T08:41:22.644Z,-0.97
2022-12-18T08:44:09.976Z,-0.27
2022-12-18T08:46:43.385Z,0.76
2022-12-18T08:49:13.048Z,1.39
2022-12-18T08:51:41.460Z,1.51
2022-12-18T08:54:13.894Z,2.12
2022-12-18T08:56:42.268Z,3.29
2022-12-18T08:59:15.813Z,3.28
2022-12-18T09:01:48.532Z,2.12
2022-12-18T09:04:16.667Z,1.05
2022-12-18T09:06:44.647Z,0.32
2022-12-18T09:09:13.073Z,-0.22
2022-12-18T09:11:41.016Z,-0.70
2022-12-18T09:14:10.982Z,-0.95
2022-12-18T09:16:39.382Z,-0.05
2022-12-18T09:19:07.430Z,0.60
2022-12-18T09:21:37.211Z,1.11
2022-12-18T09:24:09.101Z,1.70
2022-12-18T09:26:37.991Z,2.10
2022-12-18T09:29:08.586Z,2.33
2022-12-18T09:31:38.017Z,2.58
2022-12-18T09:34:07.110Z,2.53
2022-12-18T09:36:35.375Z,1.57
2022-12-18T09:39:08.085Z,0.72
2022-12-18T09:41:48.627Z,0.09
2022-12-18T09:44:30.962Z,-0.38
2022-12-18T09:47:10.669Z,-0.55
2022-12-18T09:49:44.042Z,0.37
2022-12-18T09:52:41.089Z,1.17
2022-12-18T09:55:42.122Z,1.64
2022-12-18T09:58:30.243Z,2.00
2022-12-18T10:00:58.319Z,2.12
2022-12-18T10:03:27.765Z,2.14
2022-12-18T10:06:14.888Z,2.17
2022-12-18T10:09:01.793Z,2.02
2022-12-18T10:11:35.868Z,1.66
2022-12-18T10:14:31.793Z,0.97
2022-12-18T10:17:26.253Z,0.26
2022-12-18T10:20:00.707Z,-0.23
2022-12-18T10:22:43.238Z,-0.46
2022-12-18T10:25:36.319Z,-0.05
2022-12-18T10:28:19.051Z,0.26
2022-12-18T10:30:47.766Z,1.07
2022-12-18T10:33:22.296Z,3.21
2022-12-18T10:35:52.116Z,5.04
2022-12-18T10:38:20.376Z,5.00
2022-12-18T10:40:55.538Z,3.59
2022-12-18T10:43:35.002Z,2.34
2022-12-18T10:46:06.794Z,1.44
2022-12-18T10:48:43.382Z,0.76
2022-12-18T10:51:22.200Z,0.15
2022-12-18T10:54:30.542Z,-0.33
2022-12-18T10:57:29.591Z,-0.75
2022-12-18T11:00:02.051Z,-0.55
2022-12-18T11:02:38.980Z,1.01
2022-12-18T11:05:38.145Z,2.33
2022-12-18T11:08:07.217Z,4.09
2022-12-18T11:10:39.032Z,4.35
2022-12-18T11:13:26.145Z,3.16
2022-12-18T11:15:54.424Z,1.95
2022-12-18T11:18:33.784Z,1.19
2022-12-18T11:21:10.991Z,0.62
2022-12-18T11:23:55.034Z,0.17
2022-12-18T11:26:36.964Z,-0.20
2022-12-18T11:29:24.893Z,-0.49
2022-12-18T11:31:57.076Z,-0.55
2022-12-18T11:34:33.093Z,0.60
2022-12-18T11:37:04.104Z,2.32
2022-12-18T11:39:37.875Z,4.42
2022-12-18T11:42:25.553Z,5.17
2022-12-18T11:45:02.533Z,3.60
2022-12-18T11:47:43.322Z,2.20
2022-12-18T11:50:19.690Z,1.18
2022-12-18T11:52:51.499Z,0.44
2022-12-18T11:55:38.191Z,-0.12
2022-12-18T11:58:34.097Z,-0.58
2022-12-18T12:01:24.353Z,-0.82
2022-12-18T12:04:17.039Z,-0.35
2022-12-18T12:07:03.599Z,0.17
2022-12-18T12:10:04.970Z,1.85
2022-12-18T12:12:48.999Z,4.10
2022-12-18T12:15:26.648Z,3.63
2022-12-18T12:18:45.890Z,2.15
2022-12-18T12:21:55.851Z,0.90
2022-12-18T12:24:48.183Z,0.22
2022-12-18T12:27:29.539Z,-0.25
2022-12-18T12:30:30.732Z,-0.51
2022-12-18T12:33:16.962Z,-0.26
2022-12-18T12:36:07.808Z,-0.21
2022-12-18T12:38:49.815Z,-0.38
2022-12-18T12:41:43.755Z,-0.52
2022-12-18T12:44:27.764Z,-0.59
2022-12-18T12:47:00.425Z,-0.65
2022-12-18T12:49:37.644Z,-0.71
2022-12-18T12:52:15.573Z,-0.76
2022-12-18T12:54:45.783Z,-0.83
2022-12-18T12:57:23.210Z,-0.85
2022-12-18T12:59:58.271Z,-0.78
2022-12-18T13:02:58.007Z,-0.82
2022-12-18T13:05:57.502Z,-0.56
2022-12-18T13:08:33.398Z,-0.30
2022-12-18T13:11:22.786Z,-0.35
2022-12-18T13:13:53.633Z,-0.25
2022-12-18T13:16:25.401Z,0.53
2022-12-18T13:18:55.654Z,0.95
2022-12-18T13:21:30.321Z,1.08
2022-12-18T13:24:17.059Z,1.38
2022-12-18T13:26:44.848Z,1.91
2022-12-18T13:29:43.826Z,2.24
2022-12-18T13:32:25.046Z,2.52
2022-12-18T13:35:19.710Z,2.65
2022-12-18T13:37:56.004Z,2.77
2022-12-18T13:40:39.553Z,2.97
2022-12-18T13:43:22.867Z,3.36
2022-12-18T13:46:17.785Z,3.42
2022-12-18T13:49:07.715Z,2.42
2022-12-18T13:51:36.908Z,1.45
2022-12-18T13:54:33.716Z,0.82
2022-12-18T13:57:03.280Z,0.23
2022-12-18T13:59:37.553Z,-0.19
2022-12-18T14:02:23.111Z,-0.41
2022-12-18T14:04:52.988Z,0.48
2022-12-18T14:07:26.712Z,1.25
2022-12-18T14:10:18.793Z,1.99
2022-12-18T14:13:00.881Z,2.57
2022-12-18T14:15:35.041Z,2.82
2022-12-18T14:18:23.898Z,2.98
2022-12-18T14:20:57.949Z,2.94
2022-12-18T14:23:43.531Z,2.16
2022-12-18T14:26:26.540Z,1.35
2022-12-18T14:28:55.763Z,0.69
2022-12-18T14:31:29.663Z,0.17
2022-12-18T14:33:57.847Z,-0.31
2022-12-18T14:36:28.529Z,-0.55
2022-12-18T14:38:59.382Z,-0.00
2022-12-18T14:41:28.870Z,0.56
2022-12-18T14:44:07.450Z,1.12
2022-12-18T14:46:41.058Z,1.70
2022-12-18T14:49:32.600Z,2.12
2022-12-18T14:52:20.962Z,1.89
2022-12-18T14:54:49.859Z,1.61
2022-12-18T14:57:36.709Z,1.29
2022-12-18T15:00:16.265Z,2.58
2022-12-18T15:02:46.598Z,4.35
2022-12-18T15:05:14.520Z,3.81
2022-12-18T15:07:44.773Z,2.46
2022-12-18T15:10:23.298Z,1.45
2022-12-18T15:12:57.797Z,0.71
2022-12-18T15:15:35.500Z,0.10
2022-12-18T15:18:13.723Z,-0.45
2022-12-18T15:21:12.418Z,-0.92
2022-12-18T15:23:54.462Z,-0.31
2022-12-18T15:26:23.578Z,2.42
2022-12-18T15:28:54.014Z,4.07
2022-12-18T15:31:33.708Z,4.51
2022-12-18T15:34:12.495Z,3.12
2022-12-18T15:36:41.357Z,1.82
2022-12-18T15:39:13.275Z,0.97
2022-12-18T15:42:02.089Z,0.24
2022-12-18T15:44:30.714Z,-0.46
2022-12-18T15:46:58.920Z,-0.99
2022-12-18T15:49:27.084Z,-1.40
2022-12-18T15:52:01.242Z,-1.43
2022-12-18T15:54:48.369Z,-0.30
2022-12-18T15:57:25.841Z,0.78
2022-12-18T15:59:59.613Z,1.98
2022-12-18T16:02:29.787Z,3.20
2022-12-18T16:04:58.413Z,3.26
2022-12-18T16:07:29.165Z,2.11
2022-12-18T16:10:00.300Z,1.01
2022-12-18T16:12:30.486Z,0.22
2022-12-18T16:14:58.696Z,-0.36
2022-12-18T16:17:27.119Z,-0.84
2022-12-18T16:19:55.353Z,-1.04
2022-12-18T16:22:30.612Z,-0.50
2022-12-18T16:24:59.097Z,0.53
2022-12-18T16:27:27.232Z,1.29
2022-12-18T16:29:55.381Z,1.37
2022-12-18T16:32:24.502Z,2.62
2022-12-18T16:34:52.788Z,3.70
2022-12-18T16:37:31.272Z,3.49
2022-12-18T16:39:59.755Z,2.13
2022-12-18T16:42:27.912Z,0.94
2022-12-18T16:44:58.004Z,-0.02
2022-12-18T16:47:26.353Z,-0.80
2022-12-18T16:49:54.484Z,-1.37
2022-12-18T16:52:22.735Z,-0.94
2022-12-18T16:54:50.942Z,-0.05
2022-12-18T16:57:21.115Z,0.64
2022-12-18T16:59:53.344Z,1.47
2022-12-18T17:02:25.774Z,3.51
2022-12-18T17:05:00.385Z,4.55
2022-12-18T17:07:28.551Z,3.10
2022-12-18T17:09:57.092Z,1.71
2022-12-18T17:12:25.265Z,0.71
2022-12-18T17:14:53.285Z,-0.14
2022-12-18T17:17:23.048Z,-0.83
2022-12-18T17:19:52.856Z,-1.36
2022-12-18T17:22:23.268Z,-1.78
2022-12-18T17:24:51.594Z,-1.31
2022-12-18T17:27:19.757Z,0.60
2022-12-18T17:29:48.963Z,2.21
2022-12-18T17:32:18.483Z,2.72
2022-12-18T17:34:47.137Z,2.45
2022-12-18T17:37:15.748Z,1.20
2022-12-18T17:39:43.789Z,0.10
2022-12-18T17:42:15.684Z,-0.65
2022-12-18T17:44:45.483Z,-1.30
2022-12-18T17:47:15.531Z,-1.70
2022-12-18T17:49:43.499Z,-0.90
2022-12-18T17:52:11.445Z,-0.21
2022-12-18T17:54:42.349Z,-0.06
2022-12-18T17:57:10.669Z,0.04
2022-12-18T17:59:38.862Z,0.22
2022-12-18T18:02:07.537Z,0.39
2022-12-18T18:04:36.447Z,0.46
2022-12-18T18:07:04.536Z,0.70
2022-12-18T18:09:32.889Z,0.56
2022-12-18T18:12:19.289Z,0.45
2022-12-18T18:14:47.997Z,0.94
2022-12-18T18:17:15.985Z,1.08
2022-12-18T18:19:47.431Z,0.32
2022-12-18T18:22:19.610Z,-0.74
2022-12-18T18:24:48.193Z,-1.52
2022-12-18T18:27:16.423Z,-2.09
2022-12-18T18:29:45.089Z,-2.50
2022-12-18T18:32:12.907Z,-2.09
2022-12-18T18:34:40.945Z,-1.00
2022-12-18T18:37:10.854Z,-0.80
2022-12-18T18:39:38.853Z,-0.95
2022-12-18T18:42:07.075Z,-0.98
2022-12-18T18:44:35.573Z,-0.85
2022-12-18T18:47:05.628Z,-0.72
2022-12-18T18:49:38.057Z,-0.23
2022-12-18T18:52:07.498Z,1.42
2022-12-18T18:54:35.572Z,2.92
2022-12-18T18:57:20.465Z,3.23
2022-12-18T18:59:51.656Z,2.94
2022-12-18T19:02:20.040Z,1.37
2022-12-18T19:04:48.110Z,-0.01
2022-12-18T19:07:29.346Z,-0.95
2022-12-18T19:10:04.594Z,-1.76
2022-12-18T19:12:54.903Z,-2.37
2022-12-18T19:15:23.598Z,-2.83
2022-12-18T19:17:51.478Z,-1.85
2022-12-18T19:20:19.653Z,-0.71
2022-12-18T19:22:55.282Z,-0.09
2022-12-18T19:25:37.163Z,0.44
2022-12-18T19:28:15.818Z,0.53
2022-12-18T19:30:58.657Z,0.40
2022-12-18T19:33:45.928Z,0.39
2022-12-18T19:36:17.727Z,0.37
2022-12-18T19:38:46.894Z,0.46
2022-12-18T19:41:16.295Z,0.46
2022-12-18T19:43:45.026Z,0.31
2022-12-18T19:46:16.327Z,0.29
2022-12-18T19:48:45.365Z,0.23
2022-12-18T19:51:19.678Z,0.18
2022-12-18T19:53:48.251Z,0.36
2022-12-18T19:56:19.950Z,0.27
2022-12-18T19:58:49.162Z,0.21
2022-12-18T20:01:20.243Z,-0.02
2022-12-18T20:03:52.200Z,-0.28
2022-12-18T20:06:25.081Z,-0.39
2022-12-18T20:08:57.969Z,-0.43
2022-12-18T20:11:33.897Z,-0.43
2022-12-18T20:14:07.027Z,-0.48
2022-12-18T20:16:35.787Z,-0.11
2022-12-18T20:19:03.974Z,0.11
2022-12-18T20:21:32.101Z,0.18
2022-12-18T20:24:01.547Z,0.20
2022-12-18T20:26:29.706Z,0.27
2022-12-18T20:28:58.433Z,0.27
2022-12-18T20:31:26.870Z,0.09
2022-12-18T20:34:00.173Z,-0.09
2022-12-18T20:36:30.391Z,-0.19
2022-12-18T20:39:01.679Z,-0.19
2022-12-18T20:41:38.099Z,-0.41
2022-12-18T20:44:22.236Z,-0.56
2022-12-18T20:46:54.708Z,-0.65
2022-12-18T20:49:24.979Z,-0.77
2022-12-18T20:51:56.449Z,-0.93
2022-12-18T20:54:29.256Z,-1.04
2022-12-18T20:56:57.353Z,-0.36
2022-12-18T20:59:26.085Z,0.06
2022-12-18T21:01:54.982Z,-0.09
2022-12-18T21:04:24.442Z,-0.30
2022-12-18T21:07:00.524Z,-0.45
2022-12-18T21:09:37.436Z,-0.77
2022-12-18T21:12:40.267Z,-0.96
2022-12-18T21:15:12.192Z,-0.91
2022-12-18T21:17:44.049Z,-1.03
2022-12-18T21:20:17.362Z,-1.25
2022-12-18T21:22:47.112Z,-1.37
2022-12-18T21:25:15.255Z,-1.58
2022-12-18T21:27:43.106Z,-1.54
2022-12-18T21:30:11.810Z,-1.26
2022-12-18T21:32:40.113Z,-1.17
2022-12-18T21:35:08.464Z,-1.21
2022-12-18T21:37:36.480Z,-1.36
2022-12-18T21:40:06.238Z,-1.50
2022-12-18T21:42:52.973Z,-1.52
2022-12-18T21:45:21.253Z,-1.75
2022-12-18T21:47:49.209Z,-1.89
2022-12-18T21:50:17.182Z,-1.96
2022-12-18T21:52:45.463Z,-1.97
2022-12-18T21:55:13.283Z,-1.94
2022-12-18T21:57:41.217Z,-2.12
2022-12-18T22:00:19.002Z,-1.99
2022-12-18T22:03:07.385Z,-1.67
2022-12-18T22:05:37.682Z,-1.34
2022-12-18T22:08:07.055Z,-0.20
2022-12-18T22:10:36.040Z,-0.12
2022-12-18T22:13:05.809Z,-0.39
2022-12-18T22:15:33.760Z,-0.75
2022-12-18T22:18:02.158Z,-1.19
2022-12-18T22:20:30.768Z,-1.49
2022-12-18T22:23:04.258Z,-1.65
2022-12-18T22:25:37.273Z,-1.81
2022-12-18T22:28:26.504Z,-1.87
2022-12-18T22:30:59.706Z,-1.96
2022-12-18T22:33:28.526Z,-1.98
2022-12-18T22:35:56.668Z,-1.97
2022-12-18T22:38:26.364Z,-2.04
2022-12-18T22:40:54.942Z,-2.05
2022-12-18T22:43:22.753Z,-1.99
2022-12-18T22:45:51.159Z,-1.98
2022-12-18T22:48:19.372Z,-2.09
2022-12-18T22:50:47.275Z,-2.20
2022-12-18T22:53:17.679Z,-2.23
2022-12-18T22:55:45.602Z,-2.09
2022-12-18T22:58:13.558Z,-2.18
2022-12-18T23:00:42.030Z,-2.25
2022-12-18T23:03:10.366Z,-2.22
2022-12-18T23:05:38.515Z,-2.03
2022-12-18T23:08:06.511Z,-2.01
2022-12-18T23:10:37.979Z,-1.71
2022-12-18T23:13:05.895Z,-1.44
2022-12-18T23:15:34.438Z,-1.59
2022-12-18T23:18:02.323Z,-1.72
2022-12-18T23:20:30.738Z,-1.75
2022-12-18T23:22:58.973Z,-1.32
2022-12-18T23:25:26.915Z,-1.26
2022-12-18T23:27:54.919Z,-1.51
2022-12-18T23:30:22.988Z,-1.77
2022-12-18T23:32:51.179Z,-1.89
2022-12-18T23:35:19.515Z,-1.88
2022-12-18T23:38:04.471Z,-1.86
2022-12-18T23:40:32.703Z,-1.84
2022-12-18T23:43:00.995Z,-1.84
2022-12-18T23:45:28.911Z,-1.93
2022-12-18T23:47:57.270Z,-1.94
2022-12-18T23:50:29.727Z,-1.96
2022-12-18T23:53:05.186Z,-2.01
2022-12-18T23:55:39.995Z,-2.07
2022-12-18T23:58:16.084Z,-2.16
